Raccoon Point — WYZ3965 — position and weather

sailwx.info

Track history (hours):
 
Tides and Currents Weather Stations Pressure Air Temp Water Temp Dewpoint Dewpoint Depression Visibility Wind Speed Wind Dir Waves Ship Positions

Raccoon Point

Owner: OMEGA PROTEIN INC., Moss Point, MS. More information available from US FCC via Universal Licensing System and Coast Guard Vessel Documentation Center.

Last reported at 2017-Sep-24 15:30 UTC. Time now 2017-Sep-24 15:52 UTC.
Position N 29°49' W 092°08'.

Length 49 m; draft 3.5 m.

Type: Fishing. MMSI: 367108920.

Date/timePositionNaut miles runAvg speedWind from/ knotsBaromVisibWave heightAir tempDewpointWater temp
2017-Sep-24 15:30N 29°49' W 092°08'0 0.0
2017-Sep-24 15:00N 29°49' W 092°08'0 0.0
2017-Sep-24 14:30N 29°49' W 092°08'0 0.0
2017-Sep-24 14:00N 29°49' W 092°08'0 0.0
2017-Sep-24 13:30N 29°49' W 092°08'0 0.0
2017-Sep-24 13:00N 29°49' W 092°08'0 0.0
2017-Sep-24 12:30N 29°49' W 092°08'0 0.0
2017-Sep-24 12:00N 29°49' W 092°08'0 0.0
2017-Sep-24 11:30N 29°49' W 092°08'0 0.0
2017-Sep-24 11:00N 29°49' W 092°08'0 0.0
2017-Sep-24 10:30N 29°49' W 092°08'0 0.0
2017-Sep-24 10:00N 29°49' W 092°08'0 0.0
2017-Sep-24 09:30N 29°49' W 092°08'0 0.0
2017-Sep-24 09:00N 29°49' W 092°08'0 0.0
2017-Sep-24 08:30N 29°49' W 092°08'0 0.0
2017-Sep-24 08:00N 29°49' W 092°08'0 0.0
2017-Sep-24 07:30N 29°49' W 092°08'0 0.0
2017-Sep-24 07:00N 29°49' W 092°08'0 0.0
2017-Sep-24 06:30N 29°49' W 092°08'0 0.0
2017-Sep-24 06:00N 29°49' W 092°08'0 0.0
2017-Sep-24 05:30N 29°49' W 092°08'0 0.0
2017-Sep-24 05:00N 29°49' W 092°08'0 0.0
2017-Sep-24 04:30N 29°49' W 092°08'0 0.0
2017-Sep-24 04:00N 29°49' W 092°08'0 0.0
2017-Sep-24 03:30N 29°49' W 092°08'0 0.0
2017-Sep-24 03:00N 29°49' W 092°08'0 0.0
2017-Sep-24 02:30N 29°49' W 092°08'0 0.0
2017-Sep-24 02:00N 29°49' W 092°08'0 0.0
2017-Sep-24 01:30N 29°49' W 092°08'0 0.0
2017-Sep-24 01:00N 29°49' W 092°08'0 0.0
2017-Sep-24 00:30N 29°49' W 092°08'0 0.0
2017-Sep-24 00:00N 29°49' W 092°08'0 0.0
2017-Sep-23 23:30N 29°49' W 092°08'0 0.0
2017-Sep-23 23:00N 29°49' W 092°08'0 0.0
2017-Sep-23 22:30N 29°49' W 092°08'0 0.0
2017-Sep-23 22:00N 29°49' W 092°08'0 0.0
2017-Sep-23 21:30N 29°49' W 092°08'0 0.0
2017-Sep-23 21:00N 29°49' W 092°08'0 0.0
2017-Sep-23 20:30N 29°49' W 092°08'0 0.0
2017-Sep-23 20:00N 29°49' W 092°08'  
2017-Sep-20 15:03N 29°42' W 092°15'1 9.6
2017-Sep-20 14:59N 29°43' W 092°15'8 8.4
2017-Sep-20 14:01N 29°48' W 092°08'1 2.8
2017-Sep-20 13:30N 29°50' W 092°08'2 0.0
2017-Sep-18 22:13N 29°51' W 092°07'1 5.9
2017-Sep-18 22:00N 29°50' W 092°08'2 4.1
2017-Sep-18 21:30N 29°48' W 092°08'2 4.8
2017-Sep-18 21:00N 29°46' W 092°10'4 7.6
2017-Sep-18 20:30N 29°44' W 092°14'3 0.1
2017-Sep-18 00:14N 29°41' W 092°15'210.2
2017-Sep-18 00:00N 29°44' W 092°15'5 9.5
2017-Sep-17 23:30N 29°47' W 092°10'3 6.0
2017-Sep-17 23:00N 29°49' W 092°08'1 1.2
2017-Sep-17 22:30N 29°49' W 092°08'0 0.0
2017-Sep-17 22:00N 29°49' W 092°08'0 0.0
2017-Sep-17 21:30N 29°49' W 092°08'0 0.0
2017-Sep-17 21:00N 29°49' W 092°08'0 0.0
2017-Sep-17 20:30N 29°49' W 092°08'0 0.0
2017-Sep-17 20:00N 29°49' W 092°08'0 0.0
2017-Sep-17 19:30N 29°49' W 092°08'0 0.0
2017-Sep-17 19:00N 29°49' W 092°08'0 0.0
2017-Sep-17 18:30N 29°49' W 092°08'0 0.0
2017-Sep-17 18:00N 29°49' W 092°08'0 0.0
2017-Sep-17 17:30N 29°49' W 092°08'0 0.0
2017-Sep-17 17:00N 29°49' W 092°08'0 0.0
2017-Sep-17 16:30N 29°49' W 092°08'0 0.0
2017-Sep-17 16:00N 29°49' W 092°08'0 0.0
2017-Sep-17 15:30N 29°49' W 092°08'0 0.0
2017-Sep-17 15:00N 29°49' W 092°08'0 0.0
2017-Sep-17 14:30N 29°49' W 092°08'0 0.0
2017-Sep-17 14:00N 29°49' W 092°08'0 0.0
2017-Sep-17 13:30N 29°49' W 092°08'0 0.0
2017-Sep-17 13:00N 29°49' W 092°08'0 0.0
2017-Sep-17 12:30N 29°49' W 092°08'0 0.0
2017-Sep-17 12:00N 29°49' W 092°08'0 0.0
2017-Sep-17 11:30N 29°49' W 092°08'0 0.0
2017-Sep-17 11:00N 29°49' W 092°08'0 0.0
2017-Sep-17 10:30N 29°49' W 092°08'0 0.0
2017-Sep-17 10:00N 29°49' W 092°08'0 0.0
2017-Sep-17 09:30N 29°49' W 092°08'0 0.0
2017-Sep-17 09:00N 29°49' W 092°08'0 0.0
2017-Sep-17 08:30N 29°49' W 092°08'0 0.0
2017-Sep-17 08:00N 29°49' W 092°08'0 0.0
2017-Sep-17 07:30N 29°49' W 092°08'0 0.0
2017-Sep-17 07:00N 29°49' W 092°08'0 0.0
2017-Sep-17 06:30N 29°49' W 092°08'0 0.0
2017-Sep-17 06:00N 29°49' W 092°08'0 0.0
2017-Sep-17 05:30N 29°49' W 092°08'0 0.0
2017-Sep-17 04:59N 29°49' W 092°08'0 0.0
2017-Sep-17 04:30N 29°49' W 092°08'0 0.0
2017-Sep-17 03:59N 29°49' W 092°08'0 0.0
2017-Sep-17 03:29N 29°49' W 092°08'0 0.0
2017-Sep-17 02:59N 29°49' W 092°08'0 0.0
2017-Sep-17 02:30N 29°49' W 092°08'0 0.0
2017-Sep-17 01:58N 29°49' W 092°08'0 0.0
2017-Sep-17 01:29N 29°49' W 092°08'0 0.0
2017-Sep-17 00:57N 29°49' W 092°08'0 0.0
2017-Sep-17 00:30N 29°49' W 092°08'0 0.0
2017-Sep-17 00:00N 29°49' W 092°08'0 0.0
2017-Sep-16 23:30N 29°49' W 092°08'0 0.0
2017-Sep-16 23:00N 29°49' W 092°08'0 0.0
2017-Sep-16 22:30N 29°49' W 092°08'0 0.0
2017-Sep-16 22:00N 29°49' W 092°08'0 0.0
2017-Sep-16 21:30N 29°49' W 092°08'0 0.0
2017-Sep-16 21:00N 29°49' W 092°08'0 0.0
2017-Sep-16 20:30N 29°49' W 092°08'0 0.0
2017-Sep-16 20:00N 29°49' W 092°08'0 0.0
2017-Sep-16 19:30N 29°49' W 092°08'0 0.0
2017-Sep-16 19:00N 29°49' W 092°08'0 0.0
2017-Sep-16 18:30N 29°49' W 092°08'0 0.0
2017-Sep-16 18:00N 29°49' W 092°08'0 0.0
2017-Sep-16 17:30N 29°49' W 092°08'0 0.0
2017-Sep-16 17:00N 29°49' W 092°08'0 0.0
2017-Sep-16 16:30N 29°49' W 092°08'0 0.0
2017-Sep-16 16:00N 29°49' W 092°08'0 0.0
2017-Sep-16 15:30N 29°49' W 092°08'0 0.0
2017-Sep-16 15:00N 29°49' W 092°08'0 0.0
2017-Sep-16 14:30N 29°49' W 092°08'0 0.0
2017-Sep-16 14:00N 29°49' W 092°08'0 0.0
2017-Sep-16 13:30N 29°49' W 092°08'0 0.0
2017-Sep-16 13:00N 29°49' W 092°08'0 0.0
2017-Sep-16 12:30N 29°49' W 092°08'0 0.0
2017-Sep-16 12:00N 29°49' W 092°08'0 0.0
2017-Sep-16 11:30N 29°49' W 092°08'0 0.0
2017-Sep-16 11:00N 29°49' W 092°08'0 0.0
2017-Sep-16 10:30N 29°49' W 092°08'0 0.0
2017-Sep-16 10:00N 29°49' W 092°08'0 0.0
2017-Sep-16 09:30N 29°49' W 092°08'0 0.0
2017-Sep-16 09:00N 29°49' W 092°08'0 0.0
2017-Sep-16 08:30N 29°49' W 092°08'0 0.0
2017-Sep-16 08:00N 29°49' W 092°08'0 0.0
2017-Sep-16 07:30N 29°49' W 092°08'0 0.0
2017-Sep-16 07:00N 29°49' W 092°08'0 0.0
2017-Sep-16 06:29N 29°49' W 092°08'0 0.0
2017-Sep-16 06:00N 29°49' W 092°08'0 0.0
2017-Sep-16 05:30N 29°49' W 092°08'0 0.0
2017-Sep-16 05:00N 29°49' W 092°08'0 0.0
2017-Sep-16 04:30N 29°49' W 092°08'0 0.0
2017-Sep-16 04:00N 29°49' W 092°08'0 0.0
2017-Sep-16 03:30N 29°49' W 092°08'0 0.0
2017-Sep-16 03:00N 29°49' W 092°08'0 0.0
2017-Sep-16 02:30N 29°49' W 092°08'0 0.0
2017-Sep-16 02:00N 29°49' W 092°08'0 0.0
2017-Sep-16 01:28N 29°49' W 092°08'0 0.0
2017-Sep-16 01:00N 29°49' W 092°08'0 0.0
2017-Sep-16 00:30N 29°49' W 092°08'0 0.0
2017-Sep-16 00:00N 29°49' W 092°08'0 0.0
2017-Sep-15 23:28N 29°49' W 092°08'0 0.0
2017-Sep-15 23:00N 29°49' W 092°08'0 0.0
2017-Sep-15 22:29N 29°49' W 092°08'0 0.0
2017-Sep-15 22:00N 29°49' W 092°08'0 0.0
2017-Sep-15 21:30N 29°49' W 092°08'0 0.0
2017-Sep-15 21:00N 29°49' W 092°08'0 0.0
2017-Sep-15 20:30N 29°49' W 092°08'0 0.0
2017-Sep-15 20:00N 29°49' W 092°08'0 0.0
2017-Sep-15 19:30N 29°49' W 092°08'0 0.0
2017-Sep-15 19:00N 29°49' W 092°08'0 0.0
2017-Sep-15 18:30N 29°49' W 092°08'0 0.0
2017-Sep-15 18:00N 29°49' W 092°08'0 0.0
2017-Sep-15 17:30N 29°49' W 092°08'0 0.0
2017-Sep-15 03:40N 29°49' W 092°08'0 0.0
2017-Sep-15 03:30N 29°49' W 092°08'0 0.0
2017-Sep-15 03:00N 29°49' W 092°08'0 0.0
2017-Sep-15 02:30N 29°49' W 092°08'0 0.0
2017-Sep-15 02:00N 29°49' W 092°08'0 0.0
2017-Sep-15 01:30N 29°49' W 092°08'0 0.1
2017-Sep-15 01:00N 29°49' W 092°08'0 0.0
2017-Sep-15 00:30N 29°49' W 092°08'0 0.0
2017-Sep-14 23:51N 29°49' W 092°08'1 2.7
2017-Sep-14 23:30N 29°48' W 092°08'3 6.7
2017-Sep-14 23:00N 29°45' W 092°07'4 7.0
2017-Sep-14 22:30N 29°42' W 092°05'  
Track history (hours):
 
Tides and Currents Weather Stations Pressure Air Temp Water Temp Dewpoint Dewpoint Depression Visibility Wind Speed Wind Dir Waves Ship Positions

Raccoon Point

Owner: OMEGA PROTEIN INC., Moss Point, MS. More information available from US FCC via Universal Licensing System and Coast Guard Vessel Documentation Center.

Last reported at 2017-Sep-24 15:30 UTC. Time now 2017-Sep-24 15:52 UTC.
Position N 29°49' W 092°08'.

Length 49 m; draft 3.5 m.

Type: Fishing. MMSI: 367108920.

Date/timePositionNaut miles runAvg speedWind from/ knotsBaromVisibWave heightAir tempDewpointWater temp
2017-Sep-24 15:30N 29°49' W 092°08'0 0.0
2017-Sep-24 15:00N 29°49' W 092°08'0 0.0
2017-Sep-24 14:30N 29°49' W 092°08'0 0.0
2017-Sep-24 14:00N 29°49' W 092°08'0 0.0
2017-Sep-24 13:30N 29°49' W 092°08'0 0.0
2017-Sep-24 13:00N 29°49' W 092°08'0 0.0
2017-Sep-24 12:30N 29°49' W 092°08'0 0.0
2017-Sep-24 12:00N 29°49' W 092°08'0 0.0
2017-Sep-24 11:30N 29°49' W 092°08'0 0.0
2017-Sep-24 11:00N 29°49' W 092°08'0 0.0
2017-Sep-24 10:30N 29°49' W 092°08'0 0.0
2017-Sep-24 10:00N 29°49' W 092°08'0 0.0
2017-Sep-24 09:30N 29°49' W 092°08'0 0.0
2017-Sep-24 09:00N 29°49' W 092°08'0 0.0
2017-Sep-24 08:30N 29°49' W 092°08'0 0.0
2017-Sep-24 08:00N 29°49' W 092°08'0 0.0
2017-Sep-24 07:30N 29°49' W 092°08'0 0.0
2017-Sep-24 07:00N 29°49' W 092°08'0 0.0
2017-Sep-24 06:30N 29°49' W 092°08'0 0.0
2017-Sep-24 06:00N 29°49' W 092°08'0 0.0
2017-Sep-24 05:30N 29°49' W 092°08'0 0.0
2017-Sep-24 05:00N 29°49' W 092°08'0 0.0
2017-Sep-24 04:30N 29°49' W 092°08'0 0.0
2017-Sep-24 04:00N 29°49' W 092°08'0 0.0
2017-Sep-24 03:30N 29°49' W 092°08'0 0.0
2017-Sep-24 03:00N 29°49' W 092°08'0 0.0
2017-Sep-24 02:30N 29°49' W 092°08'0 0.0
2017-Sep-24 02:00N 29°49' W 092°08'0 0.0
2017-Sep-24 01:30N 29°49' W 092°08'0 0.0
2017-Sep-24 01:00N 29°49' W 092°08'0 0.0
2017-Sep-24 00:30N 29°49' W 092°08'0 0.0
2017-Sep-24 00:00N 29°49' W 092°08'0 0.0
2017-Sep-23 23:30N 29°49' W 092°08'0 0.0
2017-Sep-23 23:00N 29°49' W 092°08'0 0.0
2017-Sep-23 22:30N 29°49' W 092°08'0 0.0
2017-Sep-23 22:00N 29°49' W 092°08'0 0.0
2017-Sep-23 21:30N 29°49' W 092°08'0 0.0
2017-Sep-23 21:00N 29°49' W 092°08'0 0.0
2017-Sep-23 20:30N 29°49' W 092°08'0 0.0
2017-Sep-23 20:00N 29°49' W 092°08'  
2017-Sep-20 15:03N 29°42' W 092°15'1 9.6
2017-Sep-20 14:59N 29°43' W 092°15'8 8.4
2017-Sep-20 14:01N 29°48' W 092°08'1 2.8
2017-Sep-20 13:30N 29°50' W 092°08'2 0.0
2017-Sep-18 22:13N 29°51' W 092°07'1 5.9
2017-Sep-18 22:00N 29°50' W 092°08'2 4.1
2017-Sep-18 21:30N 29°48' W 092°08'2 4.8
2017-Sep-18 21:00N 29°46' W 092°10'4 7.6
2017-Sep-18 20:30N 29°44' W 092°14'3 0.1
2017-Sep-18 00:14N 29°41' W 092°15'210.2
2017-Sep-18 00:00N 29°44' W 092°15'5 9.5
2017-Sep-17 23:30N 29°47' W 092°10'3 6.0
2017-Sep-17 23:00N 29°49' W 092°08'1 1.2
2017-Sep-17 22:30N 29°49' W 092°08'0 0.0
2017-Sep-17 22:00N 29°49' W 092°08'0 0.0
2017-Sep-17 21:30N 29°49' W 092°08'0 0.0
2017-Sep-17 21:00N 29°49' W 092°08'0 0.0
2017-Sep-17 20:30N 29°49' W 092°08'0 0.0
2017-Sep-17 20:00N 29°49' W 092°08'0 0.0
2017-Sep-17 19:30N 29°49' W 092°08'0 0.0
2017-Sep-17 19:00N 29°49' W 092°08'0 0.0
2017-Sep-17 18:30N 29°49' W 092°08'0 0.0
2017-Sep-17 18:00N 29°49' W 092°08'0 0.0
2017-Sep-17 17:30N 29°49' W 092°08'0 0.0
2017-Sep-17 17:00N 29°49' W 092°08'0 0.0
2017-Sep-17 16:30N 29°49' W 092°08'0 0.0
2017-Sep-17 16:00N 29°49' W 092°08'0 0.0
2017-Sep-17 15:30N 29°49' W 092°08'0 0.0
2017-Sep-17 15:00N 29°49' W 092°08'0 0.0
2017-Sep-17 14:30N 29°49' W 092°08'0 0.0
2017-Sep-17 14:00N 29°49' W 092°08'0 0.0
2017-Sep-17 13:30N 29°49' W 092°08'0 0.0
2017-Sep-17 13:00N 29°49' W 092°08'0 0.0
2017-Sep-17 12:30N 29°49' W 092°08'0 0.0
2017-Sep-17 12:00N 29°49' W 092°08'0 0.0
2017-Sep-17 11:30N 29°49' W 092°08'0 0.0
2017-Sep-17 11:00N 29°49' W 092°08'0 0.0
2017-Sep-17 10:30N 29°49' W 092°08'0 0.0
2017-Sep-17 10:00N 29°49' W 092°08'0 0.0
2017-Sep-17 09:30N 29°49' W 092°08'0 0.0
2017-Sep-17 09:00N 29°49' W 092°08'0 0.0
2017-Sep-17 08:30N 29°49' W 092°08'0 0.0
2017-Sep-17 08:00N 29°49' W 092°08'0 0.0
2017-Sep-17 07:30N 29°49' W 092°08'0 0.0
2017-Sep-17 07:00N 29°49' W 092°08'0 0.0
2017-Sep-17 06:30N 29°49' W 092°08'0 0.0
2017-Sep-17 06:00N 29°49' W 092°08'0 0.0
2017-Sep-17 05:30N 29°49' W 092°08'0 0.0
2017-Sep-17 04:59N 29°49' W 092°08'0 0.0
2017-Sep-17 04:30N 29°49' W 092°08'0 0.0
2017-Sep-17 03:59N 29°49' W 092°08'0 0.0
2017-Sep-17 03:29N 29°49' W 092°08'0 0.0
2017-Sep-17 02:59N 29°49' W 092°08'0 0.0
2017-Sep-17 02:30N 29°49' W 092°08'0 0.0
2017-Sep-17 01:58N 29°49' W 092°08'0 0.0
2017-Sep-17 01:29N 29°49' W 092°08'0 0.0
2017-Sep-17 00:57N 29°49' W 092°08'0 0.0
2017-Sep-17 00:30N 29°49' W 092°08'0 0.0
2017-Sep-17 00:00N 29°49' W 092°08'0 0.0
2017-Sep-16 23:30N 29°49' W 092°08'0 0.0
2017-Sep-16 23:00N 29°49' W 092°08'0 0.0
2017-Sep-16 22:30N 29°49' W 092°08'0 0.0
2017-Sep-16 22:00N 29°49' W 092°08'0 0.0
2017-Sep-16 21:30N 29°49' W 092°08'0 0.0
2017-Sep-16 21:00N 29°49' W 092°08'0 0.0
2017-Sep-16 20:30N 29°49' W 092°08'0 0.0
2017-Sep-16 20:00N 29°49' W 092°08'0 0.0
2017-Sep-16 19:30N 29°49' W 092°08'0 0.0
2017-Sep-16 19:00N 29°49' W 092°08'0 0.0
2017-Sep-16 18:30N 29°49' W 092°08'0 0.0
2017-Sep-16 18:00N 29°49' W 092°08'0 0.0
2017-Sep-16 17:30N 29°49' W 092°08'0 0.0
2017-Sep-16 17:00N 29°49' W 092°08'0 0.0
2017-Sep-16 16:30N 29°49' W 092°08'0 0.0
2017-Sep-16 16:00N 29°49' W 092°08'0 0.0
2017-Sep-16 15:30N 29°49' W 092°08'0 0.0
2017-Sep-16 15:00N 29°49' W 092°08'0 0.0
2017-Sep-16 14:30N 29°49' W 092°08'0 0.0
2017-Sep-16 14:00N 29°49' W 092°08'0 0.0
2017-Sep-16 13:30N 29°49' W 092°08'0 0.0
2017-Sep-16 13:00N 29°49' W 092°08'0 0.0
2017-Sep-16 12:30N 29°49' W 092°08'0 0.0
2017-Sep-16 12:00N 29°49' W 092°08'0 0.0
2017-Sep-16 11:30N 29°49' W 092°08'0 0.0
2017-Sep-16 11:00N 29°49' W 092°08'0 0.0
2017-Sep-16 10:30N 29°49' W 092°08'0 0.0
2017-Sep-16 10:00N 29°49' W 092°08'0 0.0
2017-Sep-16 09:30N 29°49' W 092°08'0 0.0
2017-Sep-16 09:00N 29°49' W 092°08'0 0.0
2017-Sep-16 08:30N 29°49' W 092°08'0 0.0
2017-Sep-16 08:00N 29°49' W 092°08'0 0.0
2017-Sep-16 07:30N 29°49' W 092°08'0 0.0
2017-Sep-16 07:00N 29°49' W 092°08'0 0.0
2017-Sep-16 06:29N 29°49' W 092°08'0 0.0
2017-Sep-16 06:00N 29°49' W 092°08'0 0.0
2017-Sep-16 05:30N 29°49' W 092°08'0 0.0
2017-Sep-16 05:00N 29°49' W 092°08'0 0.0
2017-Sep-16 04:30N 29°49' W 092°08'0 0.0
2017-Sep-16 04:00N 29°49' W 092°08'0 0.0
2017-Sep-16 03:30N 29°49' W 092°08'0 0.0
2017-Sep-16 03:00N 29°49' W 092°08'0 0.0
2017-Sep-16 02:30N 29°49' W 092°08'0 0.0
2017-Sep-16 02:00N 29°49' W 092°08'0 0.0
2017-Sep-16 01:28N 29°49' W 092°08'0 0.0
2017-Sep-16 01:00N 29°49' W 092°08'0 0.0
2017-Sep-16 00:30N 29°49' W 092°08'0 0.0
2017-Sep-16 00:00N 29°49' W 092°08'0 0.0
2017-Sep-15 23:28N 29°49' W 092°08'0 0.0
2017-Sep-15 23:00N 29°49' W 092°08'0 0.0
2017-Sep-15 22:29N 29°49' W 092°08'0 0.0
2017-Sep-15 22:00N 29°49' W 092°08'0 0.0
2017-Sep-15 21:30N 29°49' W 092°08'0 0.0
2017-Sep-15 21:00N 29°49' W 092°08'0 0.0
2017-Sep-15 20:30N 29°49' W 092°08'0 0.0
2017-Sep-15 20:00N 29°49' W 092°08'0 0.0
2017-Sep-15 19:30N 29°49' W 092°08'0 0.0
2017-Sep-15 19:00N 29°49' W 092°08'0 0.0
2017-Sep-15 18:30N 29°49' W 092°08'0 0.0
2017-Sep-15 18:00N 29°49' W 092°08'0 0.0
2017-Sep-15 17:30N 29°49' W 092°08'0 0.0
2017-Sep-15 03:40N 29°49' W 092°08'0 0.0
2017-Sep-15 03:30N 29°49' W 092°08'0 0.0
2017-Sep-15 03:00N 29°49' W 092°08'0 0.0
2017-Sep-15 02:30N 29°49' W 092°08'0 0.0
2017-Sep-15 02:00N 29°49' W 092°08'0 0.0
2017-Sep-15 01:30N 29°49' W 092°08'0 0.1
2017-Sep-15 01:00N 29°49' W 092°08'0 0.0
2017-Sep-15 00:30N 29°49' W 092°08'0 0.0
2017-Sep-14 23:51N 29°49' W 092°08'1 2.7
2017-Sep-14 23:30N 29°48' W 092°08'3 6.7
2017-Sep-14 23:00N 29°45' W 092°07'4 7.0
2017-Sep-14 22:30N 29°42' W 092°05'  

Dump ship's entire track history